Time,TemperatureF,DewpointF,PressureIn,WindDirection,WindDirectionDegrees,WindSpeedMPH,WindSpeedGustMPH,Humidity,HourlyPrecipIn,Conditions,Clouds,dailyrainin,SoftwareType,DateUTC
2013-10-07 00:01:00,42.6,42.3,29.80,West,270,0.0,2.0,99,0.00,,,0.00,VWS V14.01,2013-10-07 05:01:00,
2013-10-07 00:06:00,42.6,42.3,29.80,West,269,1.0,2.0,99,0.00,,,0.00,VWS V14.01,2013-10-07 05:06:00,
2013-10-07 00:11:00,42.6,42.3,29.80,West,277,2.0,3.0,99,0.00,,,0.00,VWS V14.01,2013-10-07 05:11:00,
2013-10-07 00:16:00,42.6,42.3,29.80,West,278,1.0,3.0,99,0.00,,CLR,0.00,VWS V14.01,2013-10-07 05:16:00,
2013-10-07 00:21:00,42.7,42.4,29.80,West,279,1.0,3.0,99,0.00,,,0.00,VWS V14.01,2013-10-07 05:21:00,
2013-10-07 00:26:00,42.9,42.6,29.80,WNW,288,1.0,3.0,99,0.00,,,0.00,VWS V14.01,2013-10-07 05:26:00,
2013-10-07 00:31:00,43.0,42.7,29.80,WNW,295,1.0,2.0,99,0.00,,CLR,0.00,VWS V14.01,2013-10-07 05:31:00,
2013-10-07 00:36:00,43.2,42.9,29.80,West,271,1.0,2.0,99,0.00,,CLR,0.00,VWS V14.01,2013-10-07 05:36:00,
2013-10-07 00:41:00,43.3,43.0,29.80,WNW,283,2.0,2.0,99,0.00,,CLR,0.00,VWS V14.01,2013-10-07 05:41:00,
2013-10-07 00:46:00,43.3,43.0,29.80,WNW,283,1.0,2.0,99,0.00,,CLR,0.00,VWS V14.01,2013-10-07 05:46:00,
2013-10-07 00:51:00,43.4,43.1,29.80,WNW,287,1.0,2.0,99,0.00,,CLR,0.00,VWS V14.01,2013-10-07 05:51:00,
2013-10-07 00:56:00,43.5,43.2,29.80,West,273,1.0,2.0,99,0.00,,CLR,0.00,VWS V14.01,2013-10-07 05:56:00,
2013-10-07 01:01:00,43.5,43.2,29.80,West,281,0.0,1.0,99,0.00,,CLR,0.00,VWS V14.01,2013-10-07 06:01:00,
2013-10-07 01:06:00,43.4,43.1,29.80,WNW,292,1.0,2.0,99,0.00,,CLR,0.00,VWS V14.01,2013-10-07 06:06:00,
2013-10-07 01:11:00,43.5,43.0,29.80,WNW,295,1.0,2.0,98,0.00,,CLR,0.00,VWS V14.01,2013-10-07 06:11:00,
2013-10-07 01:16:00,43.5,43.0,29.80,West,281,1.0,2.0,98,0.00,,CLR,0.00,VWS V14.01,2013-10-07 06:16:00,
2013-10-07 01:21:00,43.4,42.9,29.80,West,281,0.0,2.0,98,0.00,,CLR,0.00,VWS V14.01,2013-10-07 06:21:00,
2013-10-07 01:26:00,43.4,42.9,29.80,West,280,0.0,3.0,98,0.00,,CLR,0.00,VWS V14.01,2013-10-07 06:26:00,
2013-10-07 01:31:00,43.3,42.8,29.80,West,271,1.0,2.0,98,0.00,,SCT110,0.00,VWS V14.01,2013-10-07 06:31:00,
2013-10-07 01:36:00,43.3,42.8,29.80,West,279,1.0,3.0,98,0.00,,CLR,0.00,VWS V14.01,2013-10-07 06:36:00,
2013-10-07 01:41:00,43.2,42.7,29.80,West,271,0.0,3.0,98,0.00,,CLR,0.00,VWS V14.01,2013-10-07 06:41:00,
2013-10-07 01:46:00,43.2,42.7,29.80,West,279,1.0,3.0,98,0.00,,CLR,0.00,VWS V14.01,2013-10-07 06:46:00,
2013-10-07 01:51:00,43.2,42.7,29.80,West,270,2.0,3.0,98,0.00,,CLR,0.00,VWS V14.01,2013-10-07 06:51:00,
2013-10-07 01:56:00,43.2,42.7,29.80,West,275,1.0,3.0,98,0.00,,SCT110,0.00,VWS V14.01,2013-10-07 06:56:00,
2013-10-07 02:01:00,43.1,42.6,29.80,West,276,1.0,2.0,98,0.00,,CLR,0.00,VWS V14.01,2013-10-07 07:01:00,
2013-10-07 02:06:00,43.0,42.5,29.80,WNW,283,1.0,2.0,98,0.00,,CLR,0.00,VWS V14.01,2013-10-07 07:06:00,
2013-10-07 02:11:00,43.1,42.6,29.80,West,281,0.0,2.0,98,0.00,,CLR,0.00,VWS V14.01,2013-10-07 07:11:00,
2013-10-07 02:16:00,43.1,42.6,29.80,West,280,0.0,2.0,98,0.00,,SCT110,0.00,VWS V14.01,2013-10-07 07:16:00,
2013-10-07 02:21:00,43.1,42.6,29.80,West,269,1.0,2.0,98,0.01,,CLR,0.01,VWS V14.01,2013-10-07 07:21:00,
2013-10-07 02:26:00,43.2,42.7,29.80,West,264,1.0,2.0,98,0.01,,CLR,0.01,VWS V14.01,2013-10-07 07:26:00,
2013-10-07 02:31:00,43.3,42.8,29.80,West,277,0.0,2.0,98,0.01,,SCT110,0.01,VWS V14.01,2013-10-07 07:31:00,
2013-10-07 02:36:00,43.3,42.5,29.80,West,277,0.0,2.0,97,0.01,,BKN110,0.01,VWS V14.01,2013-10-07 07:36:00,
2013-10-07 02:41:00,43.3,42.5,29.80,West,278,0.0,2.0,97,0.01,,BKN110,0.01,VWS V14.01,2013-10-07 07:41:00,
2013-10-07 02:46:00,43.3,42.5,29.80,West,278,0.0,2.0,97,0.01,,BKN110,0.01,VWS V14.01,2013-10-07 07:46:00,
2013-10-07 02:51:00,43.2,42.4,29.79,West,278,0.0,2.0,97,0.01,,OVC085,0.01,VWS V14.01,2013-10-07 07:51:00,
2013-10-07 02:56:00,43.1,42.3,29.79,West,264,1.0,2.0,97,0.01,,OVC085,0.01,VWS V14.01,2013-10-07 07:56:00,
2013-10-07 03:01:00,43.3,42.8,29.79,West,270,1.0,2.0,98,0.01,,OVC085,0.01,VWS V14.01,2013-10-07 08:01:00,
2013-10-07 03:06:00,43.3,42.5,29.79,West,262,0.0,2.0,97,0.01,,OVC085,0.01,VWS V14.01,2013-10-07 08:06:00,
2013-10-07 03:11:00,43.2,42.4,29.79,West,262,0.0,2.0,97,0.01,,OVC085,0.01,VWS V14.01,2013-10-07 08:11:00,
2013-10-07 03:16:00,43.1,42.3,29.79,West,263,1.0,2.0,97,0.01,,OVC085,0.01,VWS V14.01,2013-10-07 08:16:00,
2013-10-07 03:21:00,43.1,42.3,29.80,West,263,1.0,2.0,97,0.01,,OVC085,0.01,VWS V14.01,2013-10-07 08:21:00,
2013-10-07 03:26:00,43.2,42.4,29.80,West,263,0.0,2.0,97,0.01,,OVC085,0.01,VWS V14.01,2013-10-07 08:26:00,
2013-10-07 03:31:00,43.2,42.4,29.80,WSW,255,0.0,1.0,97,0.00,,OVC085,0.01,VWS V14.01,2013-10-07 08:31:00,
2013-10-07 03:36:00,43.2,42.4,29.80,WSW,255,0.0,1.0,97,0.00,,BKN100,0.01,VWS V14.01,2013-10-07 08:36:00,
2013-10-07 03:41:00,43.2,42.4,29.80,WSW,255,0.0,1.0,97,0.00,,BKN100,0.01,VWS V14.01,2013-10-07 08:41:00,
2013-10-07 03:46:00,43.1,42.3,29.80,WSW,248,0.0,1.0,97,0.00,,BKN100,0.01,VWS V14.01,2013-10-07 08:46:00,
2013-10-07 03:51:00,43.0,42.2,29.80,WSW,255,2.0,2.0,97,0.00,,SCT100,0.01,VWS V14.01,2013-10-07 08:51:00,
2013-10-07 03:56:00,43.0,42.5,29.79,WSW,256,0.0,2.0,98,0.00,,SCT100,0.01,VWS V14.01,2013-10-07 08:56:00,
2013-10-07 04:01:00,42.9,42.4,29.79,WSW,255,1.0,1.0,98,0.00,,SCT100,0.01,VWS V14.01,2013-10-07 09:01:00,
2013-10-07 04:06:00,42.9,42.4,29.79,West,267,1.0,2.0,98,0.00,,SCT100,0.01,VWS V14.01,2013-10-07 09:06:00,
2013-10-07 04:11:00,43.0,42.5,29.80,WSW,252,0.0,2.0,98,0.00,,SCT100,0.01,VWS V14.01,2013-10-07 09:11:00,
2013-10-07 04:16:00,42.9,42.1,29.80,WSW,252,0.0,2.0,97,0.00,,SCT100,0.01,VWS V14.01,2013-10-07 09:16:00,
2013-10-07 04:21:00,42.7,41.9,29.80,WSW,252,0.0,2.0,97,0.00,,SCT100,0.01,VWS V14.01,2013-10-07 09:21:00,
2013-10-07 04:26:00,42.6,42.1,29.80,WSW,255,1.0,2.0,98,0.00,,SCT100,0.01,VWS V14.01,2013-10-07 09:26:00,
2013-10-07 04:31:00,42.7,42.2,29.80,West,266,1.0,2.0,98,0.00,,BKN100,0.01,VWS V14.01,2013-10-07 09:31:00,
2013-10-07 04:36:00,42.7,42.2,29.80,WSW,257,1.0,2.0,98,0.00,,BKN100,0.01,VWS V14.01,2013-10-07 09:36:00,
2013-10-07 04:41:00,42.7,42.2,29.80,West,262,1.0,2.0,98,0.00,,BKN100,0.01,VWS V14.01,2013-10-07 09:41:00,
2013-10-07 04:46:00,42.6,42.1,29.80,West,267,1.0,2.0,98,0.00,,BKN100,0.01,VWS V14.01,2013-10-07 09:46:00,
2013-10-07 04:51:00,42.5,42.0,29.80,West,260,1.0,2.0,98,0.00,,SCT100,0.01,VWS V14.01,2013-10-07 09:51:00,
2013-10-07 04:56:00,42.4,41.9,29.80,West,276,1.0,2.0,98,0.00,,SCT100,0.01,VWS V14.01,2013-10-07 09:56:00,
2013-10-07 05:01:00,42.3,41.5,29.81,West,277,1.0,1.0,97,0.00,,SCT100,0.01,VWS V14.01,2013-10-07 10:01:00,
2013-10-07 05:06:00,42.3,41.8,29.81,West,269,1.0,2.0,98,0.00,,SCT100,0.01,VWS V14.01,2013-10-07 10:06:00,
2013-10-07 05:11:00,42.3,41.8,29.81,West,278,1.0,2.0,98,0.00,,SCT100,0.01,VWS V14.01,2013-10-07 10:11:00,
2013-10-07 05:16:00,42.3,41.8,29.81,West,278,1.0,2.0,98,0.00,,SCT100,0.01,VWS V14.01,2013-10-07 10:16:00,
2013-10-07 05:21:00,42.3,41.8,29.81,West,278,0.0,2.0,98,0.00,,SCT100,0.01,VWS V14.01,2013-10-07 10:21:00,
2013-10-07 05:26:00,42.2,41.4,29.81,West,264,0.0,2.0,97,0.00,,SCT100,0.01,VWS V14.01,2013-10-07 10:26:00,
2013-10-07 05:31:00,42.1,41.6,29.81,WSW,243,0.0,2.0,98,0.00,,SCT100,0.01,VWS V14.01,2013-10-07 10:31:00,
2013-10-07 05:36:00,42.2,41.7,29.81,West,276,1.0,2.0,98,0.00,,SCT110,0.01,VWS V14.01,2013-10-07 10:36:00,
2013-10-07 05:41:00,42.1,41.6,29.81,West,269,1.0,2.0,98,0.00,,SCT110,0.01,VWS V14.01,2013-10-07 10:41:00,
2013-10-07 05:46:00,42.2,41.7,29.82,West,267,1.0,2.0,98,0.00,,SCT110,0.01,VWS V14.01,2013-10-07 10:46:00,
2013-10-07 05:51:00,42.1,41.6,29.82,WSW,253,1.0,2.0,98,0.00,,BKN100,0.01,VWS V14.01,2013-10-07 10:51:00,
2013-10-07 05:56:00,42.1,41.6,29.82,West,276,1.0,2.0,98,0.00,,BKN100,0.01,VWS V14.01,2013-10-07 10:56:00,
2013-10-07 06:01:00,42.2,41.7,29.82,West,277,0.0,2.0,98,0.00,,BKN100,0.01,VWS V14.01,2013-10-07 11:01:00,
2013-10-07 06:06:00,42.2,41.7,29.82,West,276,0.0,2.0,98,0.00,,BKN100,0.01,VWS V14.01,2013-10-07 11:06:00,
2013-10-07 06:11:00,42.2,41.7,29.82,West,277,0.0,2.0,98,0.00,,BKN100,0.01,VWS V14.01,2013-10-07 11:11:00,
2013-10-07 06:16:00,42.2,41.7,29.82,West,277,0.0,2.0,98,0.00,,BKN100,0.01,VWS V14.01,2013-10-07 11:16:00,
2013-10-07 06:21:00,42.2,41.7,29.83,West,277,0.0,2.0,98,0.00,,BKN100,0.01,VWS V14.01,2013-10-07 11:21:00,
2013-10-07 06:26:00,42.2,41.7,29.83,West,277,0.0,2.0,98,0.00,,BKN100,0.01,VWS V14.01,2013-10-07 11:26:00,
2013-10-07 06:31:00,42.2,41.7,29.83,West,278,1.0,1.0,98,0.00,,SCT100,0.01,VWS V14.01,2013-10-07 11:31:00,
2013-10-07 06:36:00,42.3,41.8,29.83,West,273,1.0,2.0,98,0.00,,SCT120,0.01,VWS V14.01,2013-10-07 11:36:00,
2013-10-07 06:41:00,42.3,41.8,29.83,West,263,0.0,2.0,98,0.00,,SCT120,0.01,VWS V14.01,2013-10-07 11:41:00,
2013-10-07 06:46:00,42.2,41.7,29.83,West,263,0.0,2.0,98,0.00,,SCT120,0.01,VWS V14.01,2013-10-07 11:46:00,
2013-10-07 06:51:00,42.1,41.6,29.83,West,263,0.0,2.0,98,0.00,,SCT110,0.01,VWS V14.01,2013-10-07 11:51:00,
2013-10-07 06:56:00,41.9,41.4,29.84,West,263,0.0,2.0,98,0.00,,SCT110,0.01,VWS V14.01,2013-10-07 11:56:00,
2013-10-07 07:01:00,41.9,41.4,29.84,West,263,0.0,1.0,98,0.00,,SCT110,0.01,VWS V14.01,2013-10-07 12:01:00,
2013-10-07 07:06:00,41.8,41.3,29.84,West,263,0.0,1.0,98,0.00,,SCT110,0.01,VWS V14.01,2013-10-07 12:06:00,
2013-10-07 07:11:00,41.6,41.1,29.84,West,263,0.0,1.0,98,0.00,,SCT110,0.01,VWS V14.01,2013-10-07 12:11:00,
2013-10-07 07:16:00,41.5,41.0,29.84,West,263,0.0,1.0,98,0.00,,SCT110,0.01,VWS V14.01,2013-10-07 12:16:00,
2013-10-07 07:21:00,41.4,40.9,29.84,West,263,0.0,1.0,98,0.00,,SCT110,0.01,VWS V14.01,2013-10-07 12:21:00,
2013-10-07 07:26:00,41.4,40.9,29.84,West,263,0.0,1.0,98,0.00,,SCT110,0.01,VWS V14.01,2013-10-07 12:26:00,
2013-10-07 07:31:00,41.6,41.1,29.84,West,263,0.0,0.0,98,0.00,,SCT110,0.01,VWS V14.01,2013-10-07 12:31:00,
2013-10-07 07:36:00,41.8,41.3,29.85,West,263,0.0,0.0,98,0.00,,CLR,0.01,VWS V14.01,2013-10-07 12:36:00,
2013-10-07 07:41:00,41.9,41.4,29.85,West,263,0.0,0.0,98,0.00,,CLR,0.01,VWS V14.01,2013-10-07 12:41:00,
2013-10-07 07:46:00,42.1,41.6,29.85,West,263,0.0,1.0,98,0.00,,CLR,0.01,VWS V14.01,2013-10-07 12:46:00,
2013-10-07 07:51:00,42.3,41.8,29.85,West,263,0.0,1.0,98,0.00,,CLR,0.01,VWS V14.01,2013-10-07 12:51:00,
2013-10-07 07:56:00,42.4,41.9,29.85,West,263,0.0,1.0,98,0.00,,CLR,0.01,VWS V14.01,2013-10-07 12:56:00,
2013-10-07 08:01:00,42.6,42.1,29.86,West,270,0.0,1.0,98,0.00,,CLR,0.01,VWS V14.01,2013-10-07 13:01:00,
2013-10-07 08:06:00,42.8,42.3,29.86,West,274,0.0,1.0,98,0.00,,CLR,0.01,VWS V14.01,2013-10-07 13:06:00,
2013-10-07 08:11:00,43.1,42.6,29.86,WNW,295,0.0,1.0,98,0.00,,CLR,0.01,VWS V14.01,2013-10-07 13:11:00,
2013-10-07 08:16:00,43.4,42.9,29.86,West,278,0.0,1.0,98,0.00,,CLR,0.01,VWS V14.01,2013-10-07 13:16:00,
2013-10-07 08:21:00,43.7,43.2,29.86,WNW,284,0.0,1.0,98,0.00,,CLR,0.01,VWS V14.01,2013-10-07 13:21:00,
2013-10-07 08:26:00,44.0,43.5,29.86,WNW,283,0.0,1.0,98,0.00,,CLR,0.01,VWS V14.01,2013-10-07 13:26:00,
2013-10-07 08:31:00,44.5,44.2,29.87,WSW,250,0.0,1.0,99,0.00,,CLR,0.01,VWS V14.01,2013-10-07 13:31:00,
2013-10-07 08:36:00,44.9,44.6,29.87,NW,308,1.0,2.0,99,0.00,,CLR,0.01,VWS V14.01,2013-10-07 13:36:00,
2013-10-07 08:41:00,45.3,45.0,29.87,West,273,0.0,2.0,99,0.00,,CLR,0.01,VWS V14.01,2013-10-07 13:41:00,
2013-10-07 08:46:00,45.7,45.2,29.87,West,273,0.0,2.0,98,0.00,,CLR,0.01,VWS V14.01,2013-10-07 13:46:00,
2013-10-07 08:51:00,46.1,45.6,29.88,NW,311,0.0,2.0,98,0.00,,CLR,0.01,VWS V14.01,2013-10-07 13:51:00,
2013-10-07 08:56:00,46.6,46.1,29.88,NNW,341,0.0,2.0,98,0.00,,CLR,0.01,VWS V14.01,2013-10-07 13:56:00,
2013-10-07 09:01:00,47.0,46.2,29.88,NW,319,0.0,2.0,97,0.00,,CLR,0.01,VWS V14.01,2013-10-07 14:01:00,
2013-10-07 09:06:00,47.4,46.6,29.89,North,5,1.0,2.0,97,0.00,,CLR,0.01,VWS V14.01,2013-10-07 14:06:00,
2013-10-07 09:11:00,47.9,46.8,29.89,WNW,295,2.0,3.0,96,0.00,,CLR,0.01,VWS V14.01,2013-10-07 14:11:00,
2013-10-07 09:16:00,48.3,46.9,29.89,WSW,253,0.0,3.0,95,0.00,,CLR,0.01,VWS V14.01,2013-10-07 14:16:00,
2013-10-07 09:21:00,48.8,47.2,29.89,South,176,0.0,7.0,94,0.00,,CLR,0.01,VWS V14.01,2013-10-07 14:21:00,
2013-10-07 09:26:00,49.3,47.7,29.89,NW,314,1.0,7.0,94,0.00,,CLR,0.01,VWS V14.01,2013-10-07 14:26:00,
2013-10-07 09:31:00,49.8,47.9,29.89,WSW,240,0.0,3.0,93,0.00,,CLR,0.01,VWS V14.01,2013-10-07 14:31:00,
2013-10-07 09:36:00,50.3,48.1,29.90,SE,146,0.0,3.0,92,0.00,,SCT100,0.01,VWS V14.01,2013-10-07 14:36:00,
2013-10-07 09:41:00,50.8,48.0,29.90,SE,139,1.0,5.0,90,0.00,,SCT100,0.01,VWS V14.01,2013-10-07 14:41:00,
2013-10-07 09:46:00,51.3,48.5,29.90,NNW,329,1.0,5.0,90,0.00,,SCT100,0.01,VWS V14.01,2013-10-07 14:46:00,
2013-10-07 09:51:00,51.5,48.1,29.91,West,281,0.0,5.0,88,0.00,,SCT100,0.01,VWS V14.01,2013-10-07 14:51:00,
2013-10-07 09:56:00,51.9,48.5,29.91,North,355,1.0,5.0,88,0.00,,SCT100,0.01,VWS V14.01,2013-10-07 14:56:00,
2013-10-07 10:01:00,52.2,48.5,29.91,North,349,0.0,1.0,87,0.00,,SCT100,0.01,VWS V14.01,2013-10-07 15:01:00,
2013-10-07 10:06:00,52.7,49.0,29.91,West,267,1.0,2.0,87,0.00,,SCT100,0.01,VWS V14.01,2013-10-07 15:06:00,
2013-10-07 10:11:00,52.9,48.2,29.91,East,82,1.0,3.0,84,0.00,,SCT100,0.01,VWS V14.01,2013-10-07 15:11:00,
2013-10-07 10:16:00,53.2,48.5,29.92,ENE,67,1.0,4.0,84,0.00,,SCT100,0.01,VWS V14.01,2013-10-07 15:16:00,
2013-10-07 10:21:00,53.7,49.0,29.91,SE,137,0.0,4.0,84,0.00,,SCT100,0.01,VWS V14.01,2013-10-07 15:21:00,
2013-10-07 10:26:00,54.3,49.9,29.92,WSW,252,0.0,4.0,85,0.00,,SCT100,0.01,VWS V14.01,2013-10-07 15:26:00,
2013-10-07 10:31:00,54.4,48.4,29.92,WNW,302,0.0,5.0,80,0.00,,SCT100,0.01,VWS V14.01,2013-10-07 15:31:00,
2013-10-07 10:36:00,54.6,48.9,29.92,NE,38,1.0,5.0,81,0.00,,SCT100,0.01,VWS V14.01,2013-10-07 15:36:00,
2013-10-07 10:41:00,55.0,49.6,29.92,West,269,1.0,5.0,82,0.00,,SCT100,0.01,VWS V14.01,2013-10-07 15:41:00,
2013-10-07 10:46:00,55.3,48.9,29.92,NNE,30,1.0,5.0,79,0.00,,SCT100,0.01,VWS V14.01,2013-10-07 15:46:00,
2013-10-07 10:51:00,55.5,48.4,29.92,NNW,342,2.0,5.0,77,0.00,,CLR,0.01,VWS V14.01,2013-10-07 15:51:00,
2013-10-07 10:56:00,55.8,48.4,29.92,ENE,71,0.0,5.0,76,0.00,,CLR,0.01,VWS V14.01,2013-10-07 15:56:00,
2013-10-07 11:01:00,56.3,48.8,29.92,ENE,65,0.0,3.0,76,0.00,,CLR,0.01,VWS V14.01,2013-10-07 16:01:00,
2013-10-07 11:06:00,56.7,48.9,29.92,NE,39,0.0,3.0,75,0.00,,CLR,0.01,VWS V14.01,2013-10-07 16:06:00,
2013-10-07 11:11:00,56.8,48.6,29.92,ENE,68,0.0,4.0,74,0.00,,CLR,0.01,VWS V14.01,2013-10-07 16:11:00,
2013-10-07 11:16:00,57.1,48.2,29.92,NNW,333,0.0,4.0,72,0.00,,CLR,0.01,VWS V14.01,2013-10-07 16:16:00,
2013-10-07 11:21:00,57.4,48.1,29.92,NE,36,3.0,4.0,71,0.00,,CLR,0.01,VWS V14.01,2013-10-07 16:21:00,
2013-10-07 11:26:00,57.9,49.3,29.92,ESE,105,0.0,4.0,73,0.00,,CLR,0.01,VWS V14.01,2013-10-07 16:26:00,
2013-10-07 11:31:00,58.2,49.2,29.92,NNW,329,1.0,3.0,72,0.00,,CLR,0.01,VWS V14.01,2013-10-07 16:31:00,
2013-10-07 11:36:00,58.3,47.8,29.93,WNW,293,2.0,6.0,68,0.00,,SCT100,0.01,VWS V14.01,2013-10-07 16:36:00,
2013-10-07 11:41:00,58.5,48.0,29.93,East,101,2.0,6.0,68,0.00,,SCT100,0.01,VWS V14.01,2013-10-07 16:41:00,
2013-10-07 11:46:00,58.8,47.9,29.93,NNW,342,2.0,6.0,67,0.00,,SCT100,0.01,VWS V14.01,2013-10-07 16:46:00,
2013-10-07 11:51:00,58.9,46.8,29.93,North,354,1.0,6.0,64,0.00,,SCT100,0.01,VWS V14.01,2013-10-07 16:51:00,
2013-10-07 11:56:00,59.3,47.5,29.93,North,4,2.0,6.0,65,0.00,,SCT100,0.01,VWS V14.01,2013-10-07 16:56:00,
2013-10-07 12:01:00,59.4,47.2,29.93,WSW,257,1.0,4.0,64,0.00,,SCT100,0.01,VWS V14.01,2013-10-07 17:01:00,
2013-10-07 12:06:00,59.7,47.5,29.93,NW,304,2.0,5.0,64,0.00,,SCT100,0.01,VWS V14.01,2013-10-07 17:06:00,
2013-10-07 12:11:00,59.6,46.2,29.93,NNW,333,0.0,5.0,61,0.00,,SCT100,0.01,VWS V14.01,2013-10-07 17:11:00,
2013-10-07 12:16:00,59.9,47.3,29.93,South,169,0.0,5.0,63,0.00,,SCT100,0.01,VWS V14.01,2013-10-07 17:16:00,
2013-10-07 12:21:00,60.3,46.8,29.93,NNE,30,3.0,5.0,61,0.00,,SCT100,0.01,VWS V14.01,2013-10-07 17:21:00,
2013-10-07 12:26:00,60.1,46.2,29.93,SE,131,1.0,5.0,60,0.00,,SCT100,0.01,VWS V14.01,2013-10-07 17:26:00,
2013-10-07 12:31:00,60.0,46.1,29.93,NW,308,1.0,6.0,60,0.00,,SCT100,0.01,VWS V14.01,2013-10-07 17:31:00,
2013-10-07 12:36:00,60.5,46.1,29.93,NW,311,2.0,6.0,59,0.00,,CLR,0.01,VWS V14.01,2013-10-07 17:36:00,
2013-10-07 12:40:00,60.8,47.3,29.93,WNW,302,3.0,6.0,61,0.00,,CLR,0.01,VWS V14.01,2013-10-07 17:40:00,
2013-10-07 12:45:00,60.8,46.4,29.93,NNW,339,1.0,6.0,59,0.00,,CLR,0.01,VWS V14.01,2013-10-07 17:45:00,
2013-10-07 12:50:00,61.2,46.3,29.93,NE,36,0.0,6.0,58,0.00,,SCT100,0.01,VWS V14.01,2013-10-07 17:50:00,
2013-10-07 12:55:00,61.4,45.1,29.93,WSW,252,1.0,6.0,55,0.00,,SCT100,0.01,VWS V14.01,2013-10-07 17:55:00,
2013-10-07 13:01:00,61.3,45.0,29.93,NW,313,2.0,3.0,55,0.00,,SCT100,0.01,VWS V14.01,2013-10-07 18:01:00,
2013-10-07 13:06:00,61.6,46.7,29.93,North,5,1.0,3.0,58,0.00,,SCT100,0.01,VWS V14.01,2013-10-07 18:06:00,
2013-10-07 13:11:00,62.1,47.6,29.93,NW,322,1.0,3.0,59,0.00,,SCT100,0.01,VWS V14.01,2013-10-07 18:11:00,
2013-10-07 13:16:00,62.2,47.7,29.93,West,281,3.0,5.0,59,0.00,,SCT100,0.01,VWS V14.01,2013-10-07 18:16:00,
2013-10-07 13:21:00,62.2,47.3,29.92,NW,310,0.0,5.0,58,0.00,,SCT100,0.01,VWS V14.01,2013-10-07 18:21:00,
2013-10-07 13:26:00,61.9,46.0,29.92,WNW,287,2.0,7.0,56,0.00,,SCT100,0.01,VWS V14.01,2013-10-07 18:26:00,
2013-10-07 13:31:00,62.3,46.0,29.92,WSW,246,0.0,3.0,55,0.00,,SCT100,0.01,VWS V14.01,2013-10-07 18:31:00,
2013-10-07 13:36:00,62.8,46.9,29.92,NW,319,1.0,3.0,56,0.00,,CLR,0.01,VWS V14.01,2013-10-07 18:36:00,
2013-10-07 13:41:00,63.2,43.7,29.92,East,91,1.0,4.0,49,0.00,,CLR,0.01,VWS V14.01,2013-10-07 18:41:00,
2013-10-07 13:46:00,63.3,44.4,29.92,WNW,287,3.0,6.0,50,0.00,,CLR,0.01,VWS V14.01,2013-10-07 18:46:00,
2013-10-07 13:51:00,63.3,44.4,29.92,West,264,2.0,6.0,50,0.00,,CLR,0.01,VWS V14.01,2013-10-07 18:51:00,
2013-10-07 13:56:00,63.3,46.4,29.92,NNE,32,0.0,6.0,54,0.00,,CLR,0.01,VWS V14.01,2013-10-07 18:56:00,
2013-10-07 14:01:00,63.4,43.9,29.92,NW,304,2.0,4.0,49,0.00,,CLR,0.01,VWS V14.01,2013-10-07 19:01:00,
2013-10-07 14:06:00,63.2,44.3,29.92,WNW,302,2.0,6.0,50,0.00,,CLR,0.01,VWS V14.01,2013-10-07 19:06:00,
2013-10-07 14:11:00,63.3,43.3,29.92,West,270,2.0,6.0,48,0.00,,CLR,0.01,VWS V14.01,2013-10-07 19:11:00,
2013-10-07 14:16:00,63.6,41.9,29.92,NW,322,2.0,6.0,45,0.00,,CLR,0.01,VWS V14.01,2013-10-07 19:16:00,
2013-10-07 14:21:00,63.9,42.2,29.92,NW,311,2.0,6.0,45,0.00,,CLR,0.01,VWS V14.01,2013-10-07 19:21:00,
2013-10-07 14:26:00,63.8,42.1,29.92,WNW,300,0.0,6.0,45,0.00,,CLR,0.01,VWS V14.01,2013-10-07 19:26:00,
2013-10-07 14:31:00,63.9,42.7,29.92,WSW,238,2.0,4.0,46,0.00,,CLR,0.01,VWS V14.01,2013-10-07 19:31:00,
2013-10-07 14:36:00,63.9,42.2,29.92,NNW,334,1.0,4.0,45,0.00,,CLR,0.01,VWS V14.01,2013-10-07 19:36:00,
2013-10-07 14:41:00,64.2,40.7,29.92,NNW,340,2.0,6.0,42,0.00,,CLR,0.01,VWS V14.01,2013-10-07 19:41:00,
2013-10-07 14:46:00,64.0,39.8,29.92,West,274,2.0,6.0,41,0.00,,CLR,0.01,VWS V14.01,2013-10-07 19:46:00,
2013-10-07 14:51:00,64.2,39.4,29.92,WNW,291,4.0,7.0,40,0.00,,SCT120,0.01,VWS V14.01,2013-10-07 19:51:00,
2013-10-07 14:56:00,64.3,38.8,29.92,NNE,30,4.0,7.0,39,0.00,,SCT120,0.01,VWS V14.01,2013-10-07 19:56:00,
2013-10-07 15:01:00,64.2,40.7,29.92,West,266,1.0,4.0,42,0.00,,SCT120,0.01,VWS V14.01,2013-10-07 20:01:00,
2013-10-07 15:06:00,64.6,39.8,29.92,North,353,2.0,5.0,40,0.00,,SCT120,0.01,VWS V14.01,2013-10-07 20:06:00,
2013-10-07 15:11:00,64.7,40.5,29.92,NW,309,2.0,5.0,41,0.00,,SCT120,0.01,VWS V14.01,2013-10-07 20:11:00,
2013-10-07 15:16:00,64.7,41.1,29.92,NW,311,1.0,5.0,42,0.00,,CLR,0.01,VWS V14.01,2013-10-07 20:16:00,
2013-10-07 15:21:00,65.0,40.8,29.92,WNW,284,1.0,5.0,41,0.00,,SCT120,0.01,VWS V14.01,2013-10-07 20:21:00,
2013-10-07 15:26:00,65.1,42.1,29.92,West,271,1.0,5.0,43,0.00,,SCT120,0.01,VWS V14.01,2013-10-07 20:26:00,
2013-10-07 15:31:00,64.9,40.7,29.92,WSW,248,0.0,3.0,41,0.00,,SCT120,0.01,VWS V14.01,2013-10-07 20:31:00,
2013-10-07 15:36:00,64.6,41.0,29.92,NNW,347,0.0,5.0,42,0.00,,CLR,0.01,VWS V14.01,2013-10-07 20:36:00,
2013-10-07 15:41:00,64.5,40.3,29.92,West,273,2.0,5.0,41,0.00,,CLR,0.01,VWS V14.01,2013-10-07 20:41:00,
2013-10-07 15:46:00,64.5,40.9,29.92,WNW,294,3.0,7.0,42,0.00,,CLR,0.01,VWS V14.01,2013-10-07 20:46:00,
2013-10-07 15:51:00,64.6,41.6,29.92,NE,53,1.0,7.0,43,0.00,,CLR,0.01,VWS V14.01,2013-10-07 20:51:00,
2013-10-07 15:56:00,64.9,42.5,29.92,NW,314,0.0,7.0,44,0.00,,CLR,0.01,VWS V14.01,2013-10-07 20:56:00,
2013-10-07 16:01:00,65.1,42.1,29.92,West,269,2.0,2.0,43,0.00,,CLR,0.01,VWS V14.01,2013-10-07 21:01:00,
2013-10-07 16:06:00,65.0,41.4,29.92,East,79,1.0,3.0,42,0.00,,CLR,0.01,VWS V14.01,2013-10-07 21:06:00,
2013-10-07 16:11:00,65.0,40.8,29.92,West,278,2.0,9.0,41,0.00,,CLR,0.01,VWS V14.01,2013-10-07 21:11:00,
2013-10-07 16:16:00,65.2,42.2,29.92,ESE,109,0.0,9.0,43,0.00,,CLR,0.01,VWS V14.01,2013-10-07 21:16:00,
2013-10-07 16:21:00,65.6,41.9,29.92,WNW,296,2.0,9.0,42,0.00,,CLR,0.01,VWS V14.01,2013-10-07 21:21:00,
2013-10-07 16:26:00,65.8,40.8,29.92,WNW,300,1.0,9.0,40,0.00,,CLR,0.01,VWS V14.01,2013-10-07 21:26:00,
2013-10-07 16:31:00,65.5,40.6,29.92,WSW,250,2.0,5.0,40,0.00,,CLR,0.01,VWS V14.01,2013-10-07 21:31:00,
2013-10-07 16:36:00,65.4,40.5,29.92,West,281,2.0,8.0,40,0.00,,CLR,0.01,VWS V14.01,2013-10-07 21:36:00,
2013-10-07 16:41:00,65.1,41.5,29.92,West,267,3.0,8.0,42,0.00,,CLR,0.01,VWS V14.01,2013-10-07 21:41:00,
2013-10-07 16:46:00,64.8,41.2,29.92,WNW,283,3.0,8.0,42,0.00,,CLR,0.01,VWS V14.01,2013-10-07 21:46:00,
2013-10-07 16:51:00,64.9,40.7,29.92,West,276,4.0,8.0,41,0.00,,CLR,0.01,VWS V14.01,2013-10-07 21:51:00,
2013-10-07 16:56:00,64.8,41.2,29.92,West,278,4.0,8.0,42,0.00,,CLR,0.01,VWS V14.01,2013-10-07 21:56:00,
2013-10-07 17:00:00,64.9,41.9,29.92,West,268,8.0,8.0,43,0.00,,CLR,0.01,VWS V14.01,2013-10-07 22:00:00,
2013-10-07 17:06:00,64.8,41.8,29.92,WNW,282,2.0,9.0,43,0.00,,CLR,0.01,VWS V14.01,2013-10-07 22:06:00,
2013-10-07 17:11:00,64.7,41.1,29.92,WNW,291,3.0,9.0,42,0.00,,CLR,0.01,VWS V14.01,2013-10-07 22:11:00,
2013-10-07 17:16:00,64.6,41.0,29.92,West,260,2.0,9.0,42,0.00,,CLR,0.01,VWS V14.01,2013-10-07 22:16:00,
2013-10-07 17:21:00,64.5,42.1,29.92,West,273,2.0,9.0,44,0.00,,CLR,0.01,VWS V14.01,2013-10-07 22:21:00,
2013-10-07 17:25:00,64.3,41.9,29.92,WNW,293,1.0,9.0,44,0.00,,CLR,0.01,VWS V14.01,2013-10-07 22:25:00,
2013-10-07 17:30:00,64.3,41.3,29.92,West,274,2.0,6.0,43,0.00,,CLR,0.01,VWS V14.01,2013-10-07 22:30:00,
2013-10-07 17:35:00,64.2,42.4,29.92,West,265,2.0,6.0,45,0.00,,CLR,0.01,VWS V14.01,2013-10-07 22:35:00,
2013-10-07 17:40:00,63.9,42.2,29.92,WNW,296,3.0,7.0,45,0.00,,CLR,0.01,VWS V14.01,2013-10-07 22:40:00,
2013-10-07 17:45:00,63.8,41.5,29.92,West,281,1.0,7.0,44,0.00,,CLR,0.01,VWS V14.01,2013-10-07 22:45:00,
2013-10-07 17:50:00,63.9,41.6,29.92,West,277,1.0,7.0,44,0.00,,CLR,0.01,VWS V14.01,2013-10-07 22:50:00,
2013-10-07 17:55:00,63.9,42.2,29.92,West,277,0.0,7.0,45,0.00,,CLR,0.01,VWS V14.01,2013-10-07 22:55:00,
2013-10-07 18:00:00,64.2,42.4,29.92,West,274,1.0,2.0,45,0.00,,CLR,0.01,VWS V14.01,2013-10-07 23:00:00,
2013-10-07 18:05:00,64.0,42.8,29.92,West,269,1.0,2.0,46,0.00,,CLR,0.01,VWS V14.01,2013-10-07 23:05:00,
2013-10-07 18:10:00,63.7,42.5,29.92,West,269,1.0,2.0,46,0.00,,CLR,0.01,VWS V14.01,2013-10-07 23:10:00,
2013-10-07 18:15:00,63.3,42.8,29.92,West,280,1.0,2.0,47,0.00,,CLR,0.01,VWS V14.01,2013-10-07 23:15:00,
2013-10-07 18:20:00,62.8,42.8,29.92,West,281,1.0,2.0,48,0.00,,CLR,0.01,VWS V14.01,2013-10-07 23:20:00,
2013-10-07 18:25:00,62.2,42.8,29.92,West,267,1.0,2.0,49,0.00,,CLR,0.01,VWS V14.01,2013-10-07 23:25:00,
2013-10-07 18:30:00,61.8,43.0,29.92,West,273,0.0,1.0,50,0.00,,CLR,0.01,VWS V14.01,2013-10-07 23:30:00,
2013-10-07 18:35:00,61.2,43.0,29.93,West,273,0.0,1.0,51,0.00,,CLR,0.01,VWS V14.01,2013-10-07 23:35:00,
2013-10-07 18:40:00,60.7,43.5,29.93,West,273,0.0,1.0,53,0.00,,CLR,0.01,VWS V14.01,2013-10-07 23:40:00,
2013-10-07 18:45:00,59.9,43.7,29.93,West,273,0.0,1.0,55,0.00,,CLR,0.01,VWS V14.01,2013-10-07 23:45:00,
2013-10-07 18:50:00,59.1,43.4,29.93,West,273,0.0,1.0,56,0.00,,SCT120,0.01,VWS V14.01,2013-10-07 23:50:00,
2013-10-07 18:55:00,58.2,43.5,29.93,West,273,0.0,1.0,58,0.00,,SCT120,0.01,VWS V14.01,2013-10-07 23:55:00,
2013-10-07 19:00:00,57.3,43.5,29.93,West,273,0.0,0.0,60,0.00,,SCT120,0.01,VWS V14.01,2013-10-08 00:00:00,
2013-10-07 19:05:00,56.6,43.3,29.93,West,273,0.0,0.0,61,0.00,,SCT120,0.01,VWS V14.01,2013-10-08 00:05:00,
2013-10-07 19:10:00,55.9,43.5,29.93,West,273,0.0,0.0,63,0.00,,SCT120,0.01,VWS V14.01,2013-10-08 00:10:00,
2013-10-07 19:15:00,55.2,43.2,29.93,West,273,0.0,0.0,64,0.00,,SCT120,0.01,VWS V14.01,2013-10-08 00:15:00,
2013-10-07 19:20:00,54.5,43.0,29.93,West,273,0.0,0.0,65,0.00,,SCT120,0.01,VWS V14.01,2013-10-08 00:20:00,
2013-10-07 19:25:00,54.0,43.3,29.94,West,273,0.0,0.0,67,0.00,,SCT120,0.01,VWS V14.01,2013-10-08 00:25:00,
2013-10-07 19:30:00,53.6,43.3,29.94,West,273,0.0,0.0,68,0.00,,SCT120,0.01,VWS V14.01,2013-10-08 00:30:00,
2013-10-07 19:35:00,53.4,43.9,29.94,West,273,0.0,0.0,70,0.00,,SCT120,0.01,VWS V14.01,2013-10-08 00:35:00,
2013-10-07 19:40:00,53.1,43.6,29.94,West,273,0.0,0.0,70,0.00,,SCT120,0.01,VWS V14.01,2013-10-08 00:40:00,
2013-10-07 19:45:00,52.6,43.5,29.94,West,273,0.0,0.0,71,0.00,,SCT120,0.01,VWS V14.01,2013-10-08 00:45:00,
2013-10-07 19:50:00,52.3,43.5,29.94,West,273,0.0,0.0,72,0.00,,SCT120,0.01,VWS V14.01,2013-10-08 00:50:00,
2013-10-07 19:55:00,52.2,43.8,29.94,West,273,0.0,0.0,73,0.00,,SCT120,0.01,VWS V14.01,2013-10-08 00:55:00,
2013-10-07 20:00:00,52.0,43.6,29.94,West,273,0.0,0.0,73,0.00,,SCT120,0.01,VWS V14.01,2013-10-08 01:00:00,
2013-10-07 20:05:00,51.6,43.6,29.94,West,273,0.0,0.0,74,0.00,,SCT120,0.01,VWS V14.01,2013-10-08 01:05:00,
2013-10-07 20:10:00,51.8,44.1,29.95,West,273,0.0,0.0,75,0.00,,SCT120,0.01,VWS V14.01,2013-10-08 01:10:00,
2013-10-07 20:15:00,52.0,44.3,29.95,West,273,0.0,0.0,75,0.00,,SCT120,0.01,VWS V14.01,2013-10-08 01:15:00,
2013-10-07 20:20:00,52.0,44.3,29.95,West,273,0.0,0.0,75,0.00,,SCT120,0.01,VWS V14.01,2013-10-08 01:20:00,
2013-10-07 20:25:00,51.7,44.4,29.95,West,273,0.0,0.0,76,0.00,,SCT120,0.01,VWS V14.01,2013-10-08 01:25:00,
2013-10-07 20:30:00,51.2,43.9,29.95,West,273,0.0,0.0,76,0.00,,SCT120,0.01,VWS V14.01,2013-10-08 01:30:00,
2013-10-07 20:35:00,50.8,43.5,29.95,West,273,0.0,0.0,76,0.00,,BKN120,0.01,VWS V14.01,2013-10-08 01:35:00,
2013-10-07 20:40:00,50.5,43.6,29.95,West,273,0.0,0.0,77,0.00,,BKN120,0.01,VWS V14.01,2013-10-08 01:40:00,
2013-10-07 20:45:00,50.2,43.3,29.95,West,273,0.0,0.0,77,0.00,,BKN120,0.01,VWS V14.01,2013-10-08 01:45:00,
2013-10-07 20:50:00,49.8,43.2,29.95,West,273,0.0,0.0,78,0.00,,BKN120,0.01,VWS V14.01,2013-10-08 01:50:00,
2013-10-07 20:55:00,49.7,43.5,29.95,West,272,0.0,0.0,79,0.00,,BKN120,0.01,VWS V14.01,2013-10-08 01:55:00,
2013-10-07 21:00:00,49.4,43.5,29.95,West,273,0.0,0.0,80,0.00,,BKN120,0.01,VWS V14.01,2013-10-08 02:00:00,
2013-10-07 21:05:00,49.2,44.0,29.95,West,272,0.0,0.0,82,0.00,,BKN120,0.01,VWS V14.01,2013-10-08 02:05:00,
2013-10-07 21:10:00,49.6,44.3,29.95,West,273,0.0,0.0,82,0.00,,BKN120,0.01,VWS V14.01,2013-10-08 02:10:00,
2013-10-07 21:15:00,49.6,44.3,29.95,West,273,0.0,0.0,82,0.00,,BKN120,0.01,VWS V14.01,2013-10-08 02:15:00,
2013-10-07 21:20:00,49.4,44.1,29.95,West,273,0.0,0.0,82,0.00,,BKN120,0.01,VWS V14.01,2013-10-08 02:20:00,
2013-10-07 21:25:00,49.1,43.8,29.95,West,272,0.0,0.0,82,0.00,,BKN120,0.01,VWS V14.01,2013-10-08 02:25:00,
2013-10-07 21:30:00,49.2,44.0,29.95,West,273,0.0,0.0,82,0.00,,BKN120,0.01,VWS V14.01,2013-10-08 02:30:00,
2013-10-07 21:35:00,49.1,43.8,29.95,West,273,0.0,0.0,82,0.00,,BKN110,0.01,VWS V14.01,2013-10-08 02:35:00,
2013-10-07 21:40:00,49.2,44.3,29.95,West,273,0.0,0.0,83,0.00,,BKN110,0.01,VWS V14.01,2013-10-08 02:40:00,
2013-10-07 21:45:00,49.6,44.3,29.95,SSW,199,0.0,0.0,82,0.00,,BKN110,0.01,VWS V14.01,2013-10-08 02:45:00,
2013-10-07 21:50:00,49.8,44.5,29.95,SSW,199,0.0,0.0,82,0.00,,BKN110,0.01,VWS V14.01,2013-10-08 02:50:00,
2013-10-07 21:55:00,49.7,44.1,29.95,SSW,199,0.0,0.0,81,0.00,,BKN110,0.01,VWS V14.01,2013-10-08 02:55:00,
2013-10-07 22:00:00,49.9,44.3,29.95,SE,139,0.0,0.0,81,0.00,,BKN110,0.01,VWS V14.01,2013-10-08 03:00:00,
2013-10-07 22:05:00,49.9,44.3,29.95,SSE,153,0.0,0.0,81,0.00,,BKN110,0.01,VWS V14.01,2013-10-08 03:05:00,
2013-10-07 22:10:00,49.9,44.3,29.95,South,186,0.0,1.0,81,0.00,,BKN110,0.01,VWS V14.01,2013-10-08 03:10:00,
2013-10-07 22:15:00,49.9,44.3,29.95,SSE,162,1.0,1.0,81,0.00,,BKN110,0.01,VWS V14.01,2013-10-08 03:15:00,
2013-10-07 22:20:00,50.1,44.5,29.95,SSE,162,0.0,1.0,81,0.00,,BKN110,0.01,VWS V14.01,2013-10-08 03:20:00,
2013-10-07 22:25:00,50.3,45.0,29.95,SSE,152,0.0,1.0,82,0.00,,BKN110,0.01,VWS V14.01,2013-10-08 03:25:00,
2013-10-07 22:30:00,50.1,44.8,29.95,SSE,150,0.0,0.0,82,0.00,,BKN110,0.01,VWS V14.01,2013-10-08 03:30:00,
2013-10-07 22:35:00,49.9,45.0,29.95,SSE,150,0.0,0.0,83,0.00,,SCT110,0.01,VWS V14.01,2013-10-08 03:35:00,
2013-10-07 22:40:00,49.7,44.8,29.95,SSE,152,0.0,0.0,83,0.00,,SCT110,0.01,VWS V14.01,2013-10-08 03:40:00,
2013-10-07 22:45:00,49.6,45.0,29.95,SSE,158,0.0,1.0,84,0.00,,SCT110,0.01,VWS V14.01,2013-10-08 03:45:00,
2013-10-07 22:50:00,49.7,45.1,29.95,SSE,160,0.0,1.0,84,0.00,,SCT110,0.01,VWS V14.01,2013-10-08 03:50:00,
2013-10-07 22:55:00,49.7,45.1,29.95,SSE,166,0.0,1.0,84,0.00,,SCT110,0.01,VWS V14.01,2013-10-08 03:55:00,
2013-10-07 23:00:00,49.8,45.2,29.95,SSE,165,0.0,1.0,84,0.00,,SCT110,0.01,VWS V14.01,2013-10-08 04:00:00,
2013-10-07 23:01:00,49.8,45.2,29.95,SSE,165,1.0,1.0,84,0.00,,SCT110,0.01,VWS V14.01,2013-10-08 04:01:00,
2013-10-07 23:02:00,49.8,45.2,29.95,South,169,0.0,2.0,84,0.00,,SCT110,0.01,VWS V14.01,2013-10-08 04:02:00,
2013-10-07 23:07:00,49.8,45.2,29.94,SSE,158,1.0,2.0,84,0.00,,SCT110,0.01,VWS V14.01,2013-10-08 04:07:00,
2013-10-07 23:12:00,49.8,44.8,29.95,SSE,163,0.0,2.0,83,0.00,,SCT110,0.01,VWS V14.01,2013-10-08 04:12:00,
2013-10-07 23:17:00,49.8,44.8,29.94,SSE,163,1.0,2.0,83,0.00,,SCT110,0.01,VWS V14.01,2013-10-08 04:17:00,
2013-10-07 23:22:00,49.8,44.8,29.95,SSE,165,1.0,2.0,83,0.00,,SCT110,0.01,VWS V14.01,2013-10-08 04:22:00,
2013-10-07 23:27:00,49.9,45.0,29.94,SSE,162,1.0,2.0,83,0.00,,SCT110,0.01,VWS V14.01,2013-10-08 04:27:00,
2013-10-07 23:32:00,49.9,44.6,29.94,SE,134,0.0,2.0,82,0.00,,SCT110,0.01,VWS V14.01,2013-10-08 04:32:00,
2013-10-07 23:37:00,50.1,44.5,29.94,SE,136,0.0,2.0,81,0.00,,SCT110,0.01,VWS V14.01,2013-10-08 04:37:00,
2013-10-07 23:42:00,50.2,44.3,29.94,SSE,154,0.0,2.0,80,0.00,,SCT110,0.01,VWS V14.01,2013-10-08 04:42:00,
2013-10-07 23:47:00,50.2,44.3,29.94,SW,218,1.0,2.0,80,0.00,,SCT110,0.01,VWS V14.01,2013-10-08 04:47:00,
2013-10-07 23:52:00,50.0,44.4,29.94,SSE,165,0.0,2.0,81,0.00,,SCT110,0.01,VWS V14.01,2013-10-08 04:52:00,
2013-10-07 23:57:00,49.8,44.2,29.94,SSE,148,0.0,1.0,81,0.00,,SCT110,0.00,VWS V14.01,2013-10-08 04:57:00,